Time;durP1;ratioP1;P1;durP2;ratioP2;P2;SDS_P1;SDS_P2;PMS_P1;PMS_P2;Temp;Humidity;BMP_temperature;BMP_pressure;BME280_temperature;BME280_humidity;BME280_pressure;Samples;Min_cycle;Max_cycle;Signal;HPM_P1;HPM_P2
2021/10/16 00:01:51;;;;;;;16.87;7.60;;;6.50;99.90;;;;;;6702639;88;20244;-78
2021/10/16 00:11:51;;;;;;;13.98;7.85;;;6.50;99.90;;;;;;6704570;88;20619;-76
2021/10/16 00:21:52;;;;;;;15.48;6.75;;;6.40;99.90;;;;;;6704948;88;20205;-76
2021/10/16 00:31:53;;;;;;;18.52;7.35;;;6.20;99.90;;;;;;6703405;88;20194;-76
2021/10/16 00:41:53;;;;;;;18.37;7.50;;;6.10;99.90;;;;;;6699141;88;20215;-77
2021/10/16 01:01:57;;;;;;;13.80;7.28;;;6.00;99.90;;;;;;6743332;88;20256;-78
2021/10/16 01:11:58;;;;;;;18.65;6.75;;;6.10;99.90;;;;;;6734597;88;20193;-76
2021/10/16 01:22:00;;;;;;;32.38;7.22;;;6.00;99.90;;;;;;6752620;88;20661;-77
2021/10/16 01:32:02;;;;;;;19.37;7.12;;;6.20;99.90;;;;;;6737979;88;20215;-77
2021/10/16 01:42:03;;;;;;;18.02;7.00;;;6.20;99.90;;;;;;6747840;88;20711;-76
2021/10/16 01:52:04;;;;;;;12.80;6.65;;;6.10;99.90;;;;;;6752981;87;20200;-77
2021/10/16 02:02:05;;;;;;;18.58;6.43;;;6.00;99.90;;;;;;6751193;88;20185;-77
2021/10/16 02:12:06;;;;;;;15.18;5.97;;;5.90;99.90;;;;;;6741233;88;20240;-77
2021/10/16 02:22:06;;;;;;;12.10;6.33;;;5.90;99.90;;;;;;6755679;88;20717;-77
2021/10/16 02:32:07;;;;;;;14.55;6.90;;;5.90;99.90;;;;;;6759995;88;20508;-77
2021/10/16 02:42:08;;;;;;;21.45;6.87;;;5.80;99.90;;;;;;6759852;88;20195;-78
2021/10/16 02:52:08;;;;;;;21.40;6.45;;;5.80;99.90;;;;;;6759111;88;20772;-78
2021/10/16 03:02:09;;;;;;;19.07;7.13;;;5.90;99.90;;;;;;6747076;88;20209;-77
2021/10/16 03:12:10;;;;;;;16.77;6.28;;;5.70;99.90;;;;;;6764490;88;20516;-79
2021/10/16 03:22:11;;;;;;;33.60;6.57;;;5.60;99.90;;;;;;6757526;88;20209;-77
2021/10/16 03:32:11;;;;;;;23.02;6.10;;;5.60;99.90;;;;;;6754301;88;20509;-78
2021/10/16 03:42:12;;;;;;;12.73;5.87;;;5.60;99.90;;;;;;6762972;88;20193;-79
2021/10/16 03:52:12;;;;;;;13.52;5.40;;;5.50;99.90;;;;;;6769290;88;20209;-78
2021/10/16 04:02:13;;;;;;;11.15;5.18;;;5.40;99.90;;;;;;6750734;88;20705;-77
2021/10/16 04:12:13;;;;;;;12.25;5.20;;;5.40;99.90;;;;;;6750154;88;20184;-78
2021/10/16 04:22:14;;;;;;;12.50;5.65;;;5.30;99.90;;;;;;6748727;88;20583;-77
2021/10/16 04:32:15;;;;;;;19.75;5.00;;;5.30;99.90;;;;;;6735432;88;20209;-78
2021/10/16 04:42:17;;;;;;;14.68;5.55;;;5.30;99.90;;;;;;6734298;88;20210;-78
2021/10/16 04:52:18;;;;;;;13.68;5.43;;;5.20;99.90;;;;;;6736940;88;20235;-78
2021/10/16 05:02:18;;;;;;;10.95;5.03;;;5.20;99.90;;;;;;6734492;88;20195;-77
2021/10/16 05:12:19;;;;;;;14.30;5.07;;;5.20;99.90;;;;;;6741156;88;20635;-78
2021/10/16 05:22:20;;;;;;;37.10;5.17;;;5.10;99.90;;;;;;6741286;88;20725;-77
2021/10/16 05:32:20;;;;;;;15.05;5.47;;;4.70;99.90;;;;;;6760275;87;20521;-77
2021/10/16 05:42:21;;;;;;;92.88;6.37;;;4.60;99.90;;;;;;6758953;88;20180;-77
2021/10/16 05:52:21;;;;;;;36.90;5.97;;;4.70;99.90;;;;;;6761845;88;20637;-78
2021/10/16 06:02:22;;;;;;;36.60;6.35;;;4.70;99.90;;;;;;6752150;88;20760;-77
2021/10/16 06:12:22;;;;;;;45.83;6.60;;;4.80;99.90;;;;;;6744469;88;20270;-78
2021/10/16 06:22:23;;;;;;;42.90;6.78;;;4.80;99.90;;;;;;6749014;88;20305;-78
2021/10/16 06:32:23;;;;;;;16.98;6.45;;;4.90;99.90;;;;;;6765658;87;20222;-78
2021/10/16 06:42:24;;;;;;;41.10;6.72;;;4.90;99.90;;;;;;6761714;88;20188;-78
2021/10/16 06:52:25;;;;;;;12.13;5.87;;;5.10;99.90;;;;;;6758466;88;20516;-78
2021/10/16 07:02:26;;;;;;;30.23;6.45;;;5.20;99.90;;;;;;6747620;88;20276;-78
2021/10/16 07:12:27;;;;;;;50.25;6.35;;;5.20;99.90;;;;;;6743433;88;20712;-79
2021/10/16 07:22:28;;;;;;;24.63;6.05;;;5.40;99.90;;;;;;6739774;88;20237;-78
2021/10/16 07:32:28;;;;;;;36.35;5.97;;;5.40;99.90;;;;;;6764173;87;20187;-78
2021/10/16 07:42:29;;;;;;;55.60;8.40;;;5.40;99.90;;;;;;6756504;88;20249;-78
2021/10/16 07:52:29;;;;;;;21.75;8.20;;;5.50;99.90;;;;;;6764162;88;20207;-79
2021/10/16 08:02:30;;;;;;;26.93;10.23;;;5.90;99.90;;;;;;6760298;88;20208;-78
2021/10/16 08:12:30;;;;;;;50.85;11.05;;;6.20;99.90;;;;;;6755535;88;20607;-78
2021/10/16 08:22:32;;;;;;;45.12;11.95;;;6.20;99.90;;;;;;6758008;88;20206;-78
2021/10/16 08:32:34;;;;;;;20.85;10.90;;;6.50;99.90;;;;;;6736709;88;20494;-78
2021/10/16 08:42:35;;;;;;;24.95;12.23;;;6.70;99.90;;;;;;6736426;88;20201;-77
2021/10/16 08:52:36;;;;;;;26.33;12.95;;;7.20;99.90;;;;;;6735917;88;20207;-77
2021/10/16 09:02:37;;;;;;;32.33;15.05;;;7.70;99.90;;;;;;6735811;88;20196;-78
2021/10/16 09:12:44;;;;;;;24.42;13.20;;;8.00;99.90;;;;;;6735472;88;20219;-78
2021/10/16 09:23:12;;;;;;;26.75;14.65;;;8.10;99.90;;;;;;6735786;88;20238;-78
2021/10/16 09:33:13;;;;;;;33.05;15.50;;;8.60;99.90;;;;;;6743346;88;20208;-77
2021/10/16 09:43:17;;;;;;;29.70;14.55;;;8.90;99.90;;;;;;6737874;88;20331;-78
2021/10/16 09:53:18;;;;;;;33.15;16.75;;;9.00;99.90;;;;;;6735452;88;20225;-79
2021/10/16 10:03:26;;;;;;;23.35;12.82;;;9.40;99.90;;;;;;6735051;88;21021;-78
2021/10/16 10:13:28;;;;;;;20.85;10.75;;;11.10;99.90;;;;;;6736226;88;20221;-78
2021/10/16 10:23:29;;;;;;;20.08;11.20;;;12.80;99.90;;;;;;6747157;88;20262;-79
2021/10/16 10:33:29;;;;;;;18.62;10.70;;;13.60;99.90;;;;;;6761011;88;20213;-78
2021/10/16 10:43:38;;;;;;;20.80;9.98;;;14.60;99.90;;;;;;6760369;88;20199;-79
2021/10/16 10:53:40;;;;;;;18.12;8.82;;;16.80;99.90;;;;;;6759319;88;20245;-78
2021/10/16 11:03:44;;;;;;;16.27;8.20;;;18.10;99.90;;;;;;6736730;87;20668;-80
2021/10/16 11:13:45;;;;;;;17.12;6.90;;;17.40;99.90;;;;;;6727101;88;20210;-78
2021/10/16 11:23:45;;;;;;;17.58;7.03;;;15.40;99.90;;;;;;6730900;88;20192;-78
2021/10/16 11:33:46;;;;;;;17.35;7.62;;;18.20;99.90;;;;;;6757887;88;20233;-78
2021/10/16 11:43:47;;;;;;;17.45;7.43;;;19.30;99.90;;;;;;6758885;88;20198;-79
2021/10/16 11:53:47;;;;;;;17.40;6.15;;;20.10;99.90;;;;;;6755170;88;20265;-79
2021/10/16 12:03:48;;;;;;;14.52;5.62;;;19.30;99.90;;;;;;6756315;88;20355;-78
2021/10/16 12:13:58;;;;;;;13.07;6.40;;;19.90;99.00;;;;;;6762777;87;20223;-79
2021/10/16 12:24:12;;;;;;;9.35;4.30;;;20.90;98.60;;;;;;6754842;88;20261;-78
2021/10/16 12:34:17;;;;;;;11.97;3.87;;;21.30;96.10;;;;;;6766220;88;20320;-78
2021/10/16 12:44:28;;;;;;;8.55;3.10;;;22.10;93.80;;;;;;6763393;88;20219;-78
2021/10/16 12:54:39;;;;;;;8.75;3.55;;;21.90;91.10;;;;;;6758036;76;20519;-78
2021/10/16 13:04:51;;;;;;;12.98;4.22;;;20.10;93.90;;;;;;6760454;87;20196;-78
2021/10/16 13:14:51;;;;;;;8.20;3.08;;;21.10;95.30;;;;;;6755052;87;20216;-78
2021/10/16 13:24:52;;;;;;;8.32;3.10;;;21.20;93.10;;;;;;6751063;88;20741;-78
2021/10/16 13:34:53;;;;;;;9.75;3.90;;;22.10;93.00;;;;;;6750248;87;20246;-78
2021/10/16 13:44:53;;;;;;;10.70;3.42;;;22.00;90.80;;;;;;6749756;88;20623;-78
2021/10/16 13:54:54;;;;;;;8.20;2.70;;;22.10;91.90;;;;;;6751858;87;20984;-78
2021/10/16 14:04:54;;;;;;;10.43;2.90;;;20.90;91.60;;;;;;6752822;88;20362;-79
2021/10/16 14:14:55;;;;;;;7.35;2.42;;;19.90;92.80;;;;;;6752661;88;20299;-78
2021/10/16 14:24:55;;;;;;;6.95;2.45;;;18.90;93.30;;;;;;6752352;87;20192;-78
2021/10/16 14:34:56;;;;;;;10.93;2.57;;;18.20;94.20;;;;;;6752760;87;20232;-77
2021/10/16 14:44:56;;;;;;;8.75;2.62;;;17.80;93.90;;;;;;6766222;87;20191;-78
2021/10/16 14:54:57;;;;;;;7.57;2.58;;;16.90;95.70;;;;;;6761436;87;20205;-77
2021/10/16 15:04:57;;;;;;;8.85;1.98;;;16.20;96.40;;;;;;6752200;88;20718;-79
2021/10/16 15:14:58;;;;;;;6.43;1.73;;;15.70;97.40;;;;;;6759649;88;20247;-78
2021/10/16 15:25:00;;;;;;;6.40;1.77;;;15.20;98.20;;;;;;6751991;88;20199;-78
2021/10/16 15:35:00;;;;;;;8.68;2.05;;;14.70;98.90;;;;;;6751626;88;20315;-77
2021/10/16 15:45:01;;;;;;;7.68;1.85;;;14.40;99.90;;;;;;6751051;88;20683;-77
2021/10/16 15:55:04;;;;;;;9.52;2.25;;;14.20;99.90;;;;;;6751323;87;20571;-77
2021/10/16 16:05:05;;;;;;;8.88;3.25;;;13.90;99.90;;;;;;6743513;88;20193;-77
2021/10/16 16:15:05;;;;;;;9.23;3.10;;;13.50;99.90;;;;;;6733872;88;20236;-77
2021/10/16 16:25:07;;;;;;;9.05;3.45;;;13.20;99.90;;;;;;6746832;88;20197;-77
2021/10/16 16:35:08;;;;;;;7.97;3.47;;;13.00;99.90;;;;;;6750870;88;20689;-77
2021/10/16 16:45:10;;;;;;;10.77;3.58;;;12.90;99.90;;;;;;6750387;88;20241;-77
2021/10/16 16:55:11;;;;;;;7.68;2.65;;;12.90;99.90;;;;;;6750368;87;20309;-77
2021/10/16 17:05:14;;;;;;;9.90;3.08;;;12.60;99.90;;;;;;6750004;88;20314;-77
2021/10/16 17:15:15;;;;;;;11.50;3.10;;;12.40;99.90;;;;;;6749752;88;20705;-76
2021/10/16 17:25:16;;;;;;;16.53;7.03;;;12.50;99.90;;;;;;6750929;88;20207;-77
2021/10/16 17:35:17;;;;;;;14.55;5.80;;;12.10;99.90;;;;;;6752941;88;21100;-77
2021/10/16 17:45:18;;;;;;;13.62;4.62;;;12.00;99.90;;;;;;6754218;88;20800;-77
2021/10/16 17:55:21;;;;;;;13.73;5.00;;;11.70;99.90;;;;;;6754509;87;20282;-77
2021/10/16 18:05:22;;;;;;;11.57;4.68;;;11.60;99.90;;;;;;6747581;88;20208;-76
2021/10/16 18:15:22;;;;;;;10.82;4.03;;;11.10;99.90;;;;;;6736626;88;20192;-76
2021/10/16 18:25:23;;;;;;;10.55;4.22;;;10.90;99.90;;;;;;6750724;88;20680;-76
2021/10/16 18:35:24;;;;;;;11.00;4.45;;;10.70;99.90;;;;;;6753620;88;20339;-77
2021/10/16 18:45:24;;;;;;;15.98;4.20;;;10.50;99.90;;;;;;6752806;88;20215;-77
2021/10/16 18:55:25;;;;;;;13.40;6.05;;;10.60;99.90;;;;;;6757204;77;20297;-78
2021/10/16 19:05:26;;;;;;;12.80;4.90;;;10.40;99.90;;;;;;6726156;88;20175;-78
2021/10/16 19:15:26;;;;;;;10.82;4.97;;;10.20;99.90;;;;;;6730066;88;20182;-79
2021/10/16 19:25:29;;;;;;;14.27;5.53;;;10.30;99.90;;;;;;6735095;88;20219;-77
2021/10/16 19:35:29;;;;;;;12.70;5.93;;;10.30;99.90;;;;;;6723838;88;20499;-77
2021/10/16 19:45:30;;;;;;;11.93;5.07;;;10.10;99.90;;;;;;6726742;88;20272;-78
2021/10/16 19:55:30;;;;;;;12.45;5.15;;;10.00;99.90;;;;;;6726103;88;20207;-78
2021/10/16 20:05:31;;;;;;;13.45;5.32;;;9.90;99.90;;;;;;6720063;88;20684;-80
2021/10/16 20:15:32;;;;;;;15.32;5.35;;;9.90;99.90;;;;;;6704463;88;20347;-78
2021/10/16 20:25:33;;;;;;;14.55;5.57;;;9.80;99.90;;;;;;6720560;88;20210;-78
2021/10/16 20:35:34;;;;;;;11.55;5.55;;;9.60;99.90;;;;;;6718229;88;20280;-77
2021/10/16 20:45:34;;;;;;;17.00;5.17;;;9.40;99.90;;;;;;6720753;88;20595;-79
2021/10/16 20:55:35;;;;;;;11.20;5.23;;;9.30;99.90;;;;;;6726965;88;20606;-77
2021/10/16 21:05:36;;;;;;;13.87;5.30;;;9.20;99.90;;;;;;6725056;88;20651;-79
2021/10/16 21:15:36;;;;;;;11.10;5.37;;;9.10;99.90;;;;;;6715897;88;20523;-78
2021/10/16 21:25:37;;;;;;;14.40;5.12;;;8.90;99.90;;;;;;6721157;88;20190;-77
2021/10/16 21:35:39;;;;;;;14.23;4.95;;;8.60;99.90;;;;;;6717960;88;20209;-78
2021/10/16 21:45:39;;;;;;;11.07;4.87;;;8.80;99.90;;;;;;6715235;88;20704;-77
2021/10/16 21:55:40;;;;;;;13.70;5.50;;;8.80;99.90;;;;;;6712098;88;20225;-77
2021/10/16 22:05:42;;;;;;;13.15;5.90;;;8.90;99.90;;;;;;6712813;88;20207;-75
2021/10/16 22:15:43;;;;;;;12.35;5.45;;;8.90;99.90;;;;;;6722294;88;20520;-77
2021/10/16 22:25:44;;;;;;;14.05;6.85;;;8.70;99.90;;;;;;6726350;88;20214;-78
2021/10/16 22:35:45;;;;;;;14.70;5.70;;;8.60;99.90;;;;;;6725092;88;20279;-78
2021/10/16 22:45:46;;;;;;;12.82;4.82;;;8.40;99.90;;;;;;6715483;88;20225;-77
2021/10/16 22:55:49;;;;;;;12.02;5.57;;;8.50;99.90;;;;;;6722195;88;20234;-78
2021/10/16 23:05:50;;;;;;;9.82;5.70;;;8.50;99.90;;;;;;6717703;88;20188;-77
2021/10/16 23:15:51;;;;;;;10.70;5.03;;;8.40;99.90;;;;;;6717120;88;21030;-78
2021/10/16 23:25:51;;;;;;;13.32;5.20;;;8.30;99.90;;;;;;6723179;88;20204;-78
2021/10/16 23:35:52;;;;;;;13.52;5.03;;;8.00;99.90;;;;;;6722901;88;20307;-80
2021/10/16 23:45:52;;;;;;;11.82;5.68;;;7.90;99.90;;;;;;6719397;88;20209;-78
2021/10/16 23:55:53;;;;;;;14.38;5.95;;;7.80;99.90;;;;;;6721821;88;20191;-78
